Westbury, New York
Current Conditions -  °F | °C
As of 3:53 PM on Friday 24 Oct 2014 (Local Time) from KFRG Reporting Station
Overcast Overcast  
Wind Chill: 14°   Ceiling: 3800
Heat Index: 14°   Visibility: 10mi
Dew Point:   Wind: 7mph
Humidity: 62%   Direction: 340°NNW
Pressure: 29.77"   Gusts: NA
Location:  40.76°N, 73.59°W
Report Text: KFRG 241953Z 34006KT 10SM OVC038 14/07 A2977 RMK AO2 SLP082 T01440072
Loading
Personal Weather Stations






























Interactive Weather Map
Tropical Storm Tracking
New forecast layout! Learn more

10-Day Weather Forecast

Advertisements
Track Severe Weather on mobile